Latest Weather Observations for Beaudesert AWS

IDQ60901

Issued at 9:01 pm EST Tuesday 30 August 2016 (issued every 10 minutes, with the page automatically refreshed every 10 minutes)

About weather observations | Map of Brisbane area stations | Latest observations for Brisbane area | Other Formats
Station Details ID: 040983 Name: BEAUDESERT DRUMLEY STREET Lat: -27.97 Lon: 152.99 Height: 47.81 m
Data from the previous 72 hours. | See also: Recent months at Beaudesert AWS
Date/Time
EST
Temp
°C
App
Temp
°C
Dew
Point
°C
Rel
Hum
%
Delta-T
°C
Wind Press
QNH
hPa
Press
MSL
hPa
Rain since
9am
mm
Dir  Spd
km/h
Gust
km/h
Spd
kts
Gust
kts
30/09:00pm 10.7 10.5 9.1 90 0.8 CALM 0 0 0 0 1027.7 1027.7 0.0
30/08:30pm 11.2 10.8 8.4 83 1.4 CALM 0 0 0 0 1027.7 1027.7 0.0
30/08:00pm 13.0 13.1 10.2 83 1.4 CALM 0 0 0 0 1027.5 1027.5 0.0
30/07:30pm 13.8 14.0 10.6 81 1.7 CALM 0 0 0 0 1027.4 1027.4 0.0
30/07:00pm 14.9 15.0 10.1 73 2.5 CALM 0 0 0 0 1027.0 1026.9 0.0
30/06:30pm 16.2 15.6 10.3 68 3.1 E 4 6 2 3 1026.6 1026.5 0.0
30/06:00pm 17.6 16.6 10.9 65 3.6 ENE 7 9 4 5 1026.5 1026.4 0.0
30/05:30pm 18.5 17.4 10.8 61 4.2 ENE 7 15 4 8 1026.0 1025.9 0.0
30/05:00pm 19.9 17.8 11.1 57 4.8 ENE 13 20 7 11 1025.9 1025.8 0.0
30/04:30pm 20.8 18.5 10.3 51 5.7 ENE 13 19 7 10 1025.8 1025.7 0.0
30/04:00pm 21.8 20.1 10.0 47 6.4 ENE 9 19 5 10 1025.8 1025.7 0.0
30/03:30pm 22.2 19.7 9.7 45 6.8 E 13 20 7 11 1025.7 1025.6 0.0
30/03:00pm 22.1 20.6 10.6 48 6.3 ENE 9 17 5 9 1025.9 1025.8 0.0
30/02:30pm 22.1 19.9 9.3 44 6.9 ENE 11 19 6 10 1026.0 1025.9 0.0
30/02:00pm 22.4 20.8 10.2 46 6.6 NE 9 20 5 11 1026.2 1026.1 0.0
30/01:30pm 22.2 20.3 10.4 47 6.5 ENE 11 17 6 9 1026.4 1026.3 0.0
30/01:00pm 21.6 19.8 10.7 50 6.0 ENE 11 19 6 10 1026.7 1026.6 0.0
30/12:30pm 21.3 19.3 10.2 49 6.0 E 11 19 6 10 1027.2 1027.1 0.0
30/12:00pm 22.0 21.8 11.7 52 5.7 E 4 11 2 6 1027.6 1027.6 0.0
30/11:30am 21.1 19.5 11.7 55 5.2 E 11 22 6 12 1028.0 1028.0 0.0
30/11:00am 21.2 20.2 12.3 57 5.0 ENE 9 19 5 10 1028.5 1028.5 0.0
30/10:30am 20.4 19.5 12.6 61 4.4 ENE 9 15 5 8 1029.0 1029.0 0.0
30/10:00am 21.1 20.6 12.5 58 4.8 ENE 7 9 4 5 1029.2 1029.2 0.0
30/09:30am 19.7 19.9 13.2 66 3.7 SSW 4 6 2 3 1029.3 1029.3 0.0
30/09:00am 19.1 19.2 13.9 72 3.0 WSW 6 9 3 5 1029.2 1029.2 0.0
30/08:30am 17.6 18.3 13.5 77 2.3 SSW 2 4 1 2 1029.2 1029.2 0.0
30/08:00am 15.6 15.8 12.9 84 1.5 S 4 7 2 4 1029.2 1029.2 0.0
30/07:30am 14.3 15.1 12.7 90 0.9 CALM 0 4 0 2 1028.7 1028.7 0.0
30/07:00am 13.1 13.8 12.2 94 0.5 CALM 0 0 0 0 1028.2 1028.2 0.0
30/06:30am 10.9 11.1 10.6 98 0.2 CALM 0 0 0 0 1027.7 1027.7 0.0
30/06:00am 10.9 11.0 10.1 95 0.4 CALM 0 0 0 0 1027.1 1027.0 0.0
30/05:30am 12.1 12.1 11.3 95 0.4 E 2 4 1 2 1026.5 1026.4 0.0
30/05:00am 12.4 12.5 11.6 95 0.4 SE 2 6 1 3 1026.1 1026.0 0.0
30/04:30am 12.7 13.3 11.9 95 0.4 CALM 0 0 0 0 1025.9 1025.8 0.0
30/04:00am 12.5 12.7 11.9 96 0.3 SSW 2 2 1 1 1025.9 1025.8 0.0
30/03:30am 12.8 13.4 11.9 94 0.5 CALM 0 0 0 0 1025.6 1025.5 0.0
30/03:00am 12.9 13.2 12.3 96 0.3 SE 2 4 1 2 1025.6 1025.5 0.0
30/02:30am 12.5 13.1 11.9 96 0.3 CALM 0 2 0 1 1025.7 1025.6 0.0
30/02:00am 12.1 12.6 11.5 96 0.3 CALM 0 0 0 0 1025.8 1025.7 0.0
30/01:30am 12.4 12.6 11.9 97 0.3 SSE 2 4 1 2 1026.0 1025.9 0.0
30/01:00am 12.2 12.4 12.0 99 0.1 SSE 2 4 1 2 1026.3 1026.2 0.0
30/12:30am 11.2 11.2 11.0 99 0.1 SE 2 4 1 2 1026.4 1026.3 0.0
30/12:00am 9.8 9.5 8.7 93 0.5 CALM 0 0 0 0 1026.6 1026.5 0.0
 
Date/Time
EST
Temp
°C
App
Temp
°C
Dew
Point
°C
Rel
Hum
%
Delta-T
°C
Wind Press
QNH
hPa
Press
MSL
hPa
Rain since
9am
mm
Dir  Spd
km/h
Gust
km/h
Spd
kts
Gust
kts
29/11:30pm 10.8 10.9 10.3 97 0.3 CALM 0 0 0 0 1026.9 1026.8 0.0
29/11:00pm 10.8 10.9 10.3 97 0.3 CALM 0 0 0 0 1026.8 1026.7 0.0
29/10:30pm 10.8 10.8 9.7 93 0.6 CALM 0 0 0 0 1026.9 1026.8 0.0
29/10:00pm 11.3 11.4 10.0 92 0.7 CALM 0 0 0 0 1027.1 1027.0 0.0
29/09:30pm 12.5 12.8 10.9 90 0.8 CALM 0 0 0 0 1027.2 1027.1 0.0
29/09:00pm 12.9 13.1 10.4 85 1.3 CALM 0 0 0 0 1027.3 1027.2 0.0
29/08:30pm 14.9 15.5 11.9 82 1.6 CALM 0 2 0 1 1026.8 1026.7 0.0
29/08:00pm 15.7 16.0 12.1 79 2.0 NE 2 4 1 2 1027.0 1026.9 0.0
29/07:30pm 16.4 16.8 12.4 77 2.2 ENE 2 4 1 2 1026.6 1026.5 0.0
29/07:00pm 17.1 17.1 12.4 74 2.6 ENE 4 6 2 3 1026.1 1026.0 0.0
29/06:30pm 18.0 17.6 12.5 70 3.1 NE 6 9 3 5 1025.7 1025.6 0.0
29/06:00pm 18.6 17.9 11.9 65 3.7 NE 7 13 4 7 1025.4 1025.3 0.0
29/05:30pm 19.4 18.5 11.4 60 4.4 NE 7 15 4 8 1025.0 1024.9 0.0
29/05:00pm 20.5 19.0 10.6 53 5.4 ENE 9 19 5 10 1024.5 1024.4 0.0
29/04:30pm 21.6 20.2 11.0 51 5.9 ENE 9 17 5 9 1024.3 1024.2 0.0
29/04:00pm 21.9 19.5 11.3 51 5.9 NE 15 26 8 14 1023.9 1023.8 0.0
29/03:30pm 22.4 20.7 12.4 53 5.7 ENE 13 22 7 12 1023.6 1023.5 0.0
29/03:00pm 22.9 20.0 12.2 51 6.1 E 19 28 10 15 1023.6 1023.5 0.0
29/02:30pm 23.8 22.0 7.8 36 8.4 NE 7 11 4 6 1023.6 1023.5 0.0
29/02:00pm 24.1 22.7 8.9 38 8.2 NNW 6 9 3 5 1023.6 1023.5 0.0
29/01:30pm 23.9 23.7 10.6 43 7.4 WNW 2 6 1 3 1023.4 1023.3 0.0
29/01:00pm 23.0 21.3 8.3 39 7.8 WNW 7 9 4 5 1024.0 1023.9 0.0
29/12:30pm 22.7 21.9 9.5 43 7.1 WSW 4 7 2 4 1024.4 1024.3 0.0
29/12:00pm 22.2 21.3 9.4 44 6.9 NNW 4 15 2 8 1024.8 1024.7 0.0
29/11:30am 22.0 21.2 11.1 50 6.0 NW 6 11 3 6 1025.1 1025.0 0.0
29/11:00am 21.0 20.6 11.1 53 5.4 NNW 4 7 2 4 1025.7 1025.6 0.0
29/10:30am 20.2 20.0 11.7 58 4.7 W 4 9 2 5 1026.2 1026.1 0.0
29/10:00am 19.1 18.7 11.2 60 4.3 W 4 7 2 4 1026.3 1026.2 0.0
29/09:30am 17.7 18.1 12.4 71 2.9 NNW 2 6 1 3 1026.2 1026.1 0.0
29/09:00am 15.7 15.7 12.3 80 1.9 SSW 4 7 2 4 1026.6 1026.5 0.0
29/08:30am 13.5 13.5 11.2 86 1.2 SSW 2 6 1 3 1026.4 1026.3 0.0
29/08:00am 11.3 11.5 10.4 94 0.5 CALM 0 0 0 0 1026.2 1026.1 0.0
29/07:30am 9.6 9.2 8.4 92 0.6 CALM 0 0 0 0 1025.9 1025.8 0.0
29/07:00am 7.9 7.4 7.8 99 0.0 CALM 0 0 0 0 1025.7 1025.6 0.0
29/06:30am 6.9 6.2 6.8 99 0.0 CALM 0 0 0 0 1025.2 1025.1 0.0
29/06:00am 6.3 5.4 6.2 99 0.0 CALM 0 0 0 0 1024.7 1024.6 0.0
29/05:30am 7.2 6.5 7.1 99 0.0 CALM 0 2 0 1 1024.3 1024.2 0.0
29/05:00am 7.2 6.5 7.1 99 0.0 CALM 0 0 0 0 1024.0 1023.9 0.0
29/04:30am 6.1 5.2 6.0 99 0.0 CALM 0 0 0 0 1023.7 1023.6 0.0
29/04:00am 6.0 5.0 5.6 97 0.2 CALM 0 0 0 0 1023.6 1023.5 0.0
29/03:30am 7.3 6.5 6.6 95 0.3 CALM 0 0 0 0 1023.7 1023.6 0.0
29/03:00am 8.5 7.3 8.2 98 0.1 ESE 4 6 2 3 1023.7 1023.6 0.0
29/02:30am 7.7 7.0 7.0 95 0.3 CALM 0 0 0 0 1023.8 1023.7 0.0
29/02:00am 9.0 8.6 8.4 96 0.3 CALM 0 0 0 0 1024.0 1023.9 0.0
29/01:30am 8.9 8.1 8.3 96 0.3 SE 2 4 1 2 1024.2 1024.1 0.0
29/01:00am 9.5 9.2 8.7 95 0.4 CALM 0 2 0 1 1024.1 1024.0 0.0
29/12:30am 9.6 8.6 8.7 94 0.4 SSE 4 4 2 2 1024.2 1024.1 0.0
29/12:00am 10.1 9.5 9.0 93 0.5 SE 2 4 1 2 1024.1 1024.0 0.0
 
Date/Time
EST
Temp
°C
App
Temp
°C
Dew
Point
°C
Rel
Hum
%
Delta-T
°C
Wind Press
QNH
hPa
Press
MSL
hPa
Rain since
9am
mm
Dir  Spd
km/h
Gust
km/h
Spd
kts
Gust
kts
28/11:30pm 11.1 10.9 10.3 95 0.4 SE 2 4 1 2 1023.9 1023.8 0.0
28/11:00pm 10.4 10.1 10.2 99 0.1 SE 2 4 1 2 1023.8 1023.7 0.0
28/10:30pm 8.9 8.5 8.1 95 0.4 CALM 0 0 0 0 1023.8 1023.7 0.0
28/10:00pm 10.1 10.0 9.3 95 0.4 CALM 0 0 0 0 1023.6 1023.5 0.0
28/09:30pm 10.0 9.7 8.8 92 0.6 CALM 0 0 0 0 1023.7 1023.6 0.0
28/09:00pm 10.5 10.2 8.6 88 0.9 CALM 0 0 0 0 1023.5 1023.4 0.0
28/08:30pm 12.7 13.0 10.8 88 1.0 CALM 0 0 0 0 1023.3 1023.2 0.0
28/08:00pm 13.0 13.1 10.2 83 1.4 CALM 0 0 0 0 1022.7 1022.7 0.0
28/07:30pm 14.5 14.7 10.5 77 2.1 CALM 0 4 0 2 1022.5 1022.5 0.0
28/07:00pm 15.8 15.7 10.8 72 2.7 SSE 2 6 1 3 1022.4 1022.4 0.0
28/06:30pm 17.0 16.1 10.8 67 3.3 NE 6 11 3 6 1021.8 1021.8 0.0
28/06:00pm 17.9 16.5 10.8 63 3.8 ENE 9 15 5 8 1021.5 1021.5 0.0
28/05:30pm 19.3 17.6 10.0 55 5.0 NE 9 17 5 9 1021.2 1021.2 0.0
28/05:00pm 21.5 19.6 6.6 38 7.6 NNE 6 13 3 7 1020.9 1020.9 0.0
28/04:30pm 22.0 19.9 5.8 35 8.1 NE 6 11 3 6 1020.5 1020.5 0.0
28/04:00pm 22.4 20.5 4.9 32 8.7 NNE 4 7 2 4 1020.2 1020.2 0.0
28/03:30pm 22.7 20.5 5.2 32 8.7 NNE 6 9 3 5 1020.2 1020.2 0.0
28/03:00pm 22.7 20.5 5.2 32 8.7 NE 6 11 3 6 1020.5 1020.5 0.0
28/02:30pm 22.6 20.4 5.1 32 8.7 NNE 6 9 3 5 1020.8 1020.8 0.0
28/02:00pm 22.5 20.8 5.9 34 8.4 W 4 9 2 5 1020.9 1020.9 0.0
28/01:30pm 22.1 19.7 5.1 33 8.4 W 7 11 4 6 1021.1 1021.1 0.0
28/01:00pm 22.0 19.7 4.6 32 8.5 NNW 6 13 3 7 1021.5 1021.5 0.0
28/12:30pm 21.8 19.9 6.9 38 7.6 NW 6 13 3 7 1022.0 1022.0 0.0
28/12:00pm 20.9 18.8 5.7 37 7.5 W 6 9 3 5 1022.4 1022.4 0.0
28/11:30am 20.6 18.7 7.6 43 6.7 W 7 13 4 7 1023.2 1023.1 0.0
28/11:00am 20.1 18.0 6.8 42 6.7 WNW 7 13 4 7 1023.7 1023.6 0.0
28/10:30am 19.6 17.4 8.0 47 6.0 WSW 9 15 5 8 1023.9 1023.8 0.0
28/10:00am 19.1 16.6 8.4 50 5.5 SW 11 17 6 9 1023.9 1023.8 0.0
28/09:30am 17.5 14.9 9.2 58 4.3 SW 13 17 7 9 1024.0 1023.9 0.0
28/09:00am 15.9 13.2 8.9 63 3.6 SW 13 20 7 11 1024.2 1024.1 0.0
28/08:30am 14.4 13.0 9.4 72 2.6 WSW 7 15 4 8 1024.2 1024.1 0.0
28/08:00am 12.3 11.9 9.7 84 1.3 ESE 2 4 1 2 1024.4 1024.3 0.0
28/07:30am 8.8 8.0 8.0 95 0.4 WSW 2 6 1 3 1023.8 1023.7 0.0
28/07:00am 6.0 4.5 5.1 94 0.4 SW 2 4 1 2 1023.5 1023.4 0.0
28/06:30am 5.8 4.8 5.7 99 0.0 CALM 0 0 0 0 1023.2 1023.1 0.0
28/06:00am 4.9 3.7 4.5 97 0.2 CALM 0 0 0 0 1022.9 1022.8 0.0
28/05:30am 5.5 4.5 5.4 99 0.0 CALM 0 0 0 0 1022.5 1022.5 0.0
28/05:00am 5.1 3.9 4.4 95 0.3 CALM 0 2 0 1 1022.3 1022.3 0.0
28/04:30am 6.6 5.8 6.5 99 0.0 CALM 0 0 0 0 1022.0 1022.0 0.0
28/04:00am 7.1 5.6 7.0 99 0.0 E 4 6 2 3 1021.7 1021.7 0.0
28/03:30am 5.2 4.0 4.6 96 0.3 CALM 0 0 0 0 1021.8 1021.8 0.0
28/03:00am 6.0 4.9 5.3 95 0.3 CALM 0 0 0 0 1021.6 1021.6 0.0
28/02:30am 5.8 4.3 5.1 95 0.3 SE 2 4 1 2 1021.8 1021.8 0.0
28/02:00am 6.9 5.5 5.7 92 0.5 NNE 2 4 1 2 1021.9 1021.9 0.0
28/01:30am 7.9 6.4 6.8 93 0.5 ENE 4 6 2 3 1022.2 1022.2 0.0
28/01:00am 7.9 6.8 7.0 94 0.4 SSE 2 6 1 3 1022.0 1022.0 0.0
28/12:30am 6.8 5.9 6.2 96 0.3 CALM 0 0 0 0 1021.9 1021.9 0.0
28/12:00am 8.5 7.1 7.3 92 0.6 ESE 4 6 2 3 1022.1 1022.1 0.0
 
Date/Time
EST
Temp
°C
App
Temp
°C
Dew
Point
°C
Rel
Hum
%
Delta-T
°C
Wind Press
QNH
hPa
Press
MSL
hPa
Rain since
9am
mm
Dir  Spd
km/h
Gust
km/h
Spd
kts
Gust
kts
27/11:30pm 8.8 7.8 7.4 91 0.7 SE 2 6 1 3 1022.1 1022.1 0.0
27/11:00pm 9.0 8.3 7.0 87 0.9 CALM 0 0 0 0 1022.1 1022.1 0.0
27/10:30pm 7.9 7.0 5.9 87 0.9 CALM 0 4 0 2 1022.0 1022.0 0.0
27/10:00pm 10.8 9.4 7.3 79 1.7 SSE 4 6 2 3 1021.9 1021.9 0.0
27/09:30pm 11.4 10.0 7.3 76 2.0 SE 4 6 2 3 1021.7 1021.7 0.0

Latest Capital City Observations: Canberra | Sydney | Melbourne | Brisbane | Adelaide | Perth | Hobart | Darwin

Other Formats:

Comma delimited format used in spreadsheet applications
http://www.bom.gov.au/fwo/IDQ60901/IDQ60901.95575.axf

JavaScript Object Notation format (JSON) in row-major order
http://www.bom.gov.au/fwo/IDQ60901/IDQ60901.95575.json